sensor_id;sensor_type;location;lat;lon;timestamp;P1;durP1;ratioP1;P2;durP2;ratioP2
33150;SDS011;19508;42.578;23.416;2024-02-26T00:02:22;29.52;;;13.45;;
33150;SDS011;19508;42.578;23.416;2024-02-26T00:04:48;33.40;;;12.55;;
33150;SDS011;19508;42.578;23.416;2024-02-26T00:07:13;34.85;;;13.18;;
33150;SDS011;19508;42.578;23.416;2024-02-26T00:09:39;26.65;;;12.02;;
33150;SDS011;19508;42.578;23.416;2024-02-26T00:12:04;25.08;;;12.98;;
33150;SDS011;19508;42.578;23.416;2024-02-26T00:14:30;22.85;;;11.60;;
33150;SDS011;19508;42.578;23.416;2024-02-26T00:19:52;33.83;;;14.25;;
33150;SDS011;19508;42.578;23.416;2024-02-26T00:22:18;20.48;;;10.55;;
33150;SDS011;19508;42.578;23.416;2024-02-26T00:24:43;24.67;;;9.98;;
33150;SDS011;19508;42.578;23.416;2024-02-26T00:27:09;22.52;;;10.13;;
33150;SDS011;19508;42.578;23.416;2024-02-26T00:29:34;22.85;;;10.55;;
33150;SDS011;19508;42.578;23.416;2024-02-26T00:32:00;20.85;;;10.38;;
33150;SDS011;19508;42.578;23.416;2024-02-26T00:34:25;28.88;;;12.48;;
33150;SDS011;19508;42.578;23.416;2024-02-26T00:36:50;29.05;;;11.20;;
33150;SDS011;19508;42.578;23.416;2024-02-26T00:39:16;23.65;;;10.73;;
33150;SDS011;19508;42.578;23.416;2024-02-26T00:41:41;27.05;;;10.90;;
33150;SDS011;19508;42.578;23.416;2024-02-26T00:44:07;23.40;;;11.68;;
33150;SDS011;19508;42.578;23.416;2024-02-26T00:46:32;26.42;;;11.82;;
33150;SDS011;19508;42.578;23.416;2024-02-26T00:48:58;29.33;;;12.40;;
33150;SDS011;19508;42.578;23.416;2024-02-26T00:51:23;34.25;;;16.17;;
33150;SDS011;19508;42.578;23.416;2024-02-26T00:53:49;25.05;;;9.63;;
33150;SDS011;19508;42.578;23.416;2024-02-26T00:56:14;20.67;;;11.48;;
33150;SDS011;19508;42.578;23.416;2024-02-26T00:58:40;25.10;;;12.32;;
33150;SDS011;19508;42.578;23.416;2024-02-26T01:01:05;24.30;;;11.75;;
33150;SDS011;19508;42.578;23.416;2024-02-26T01:03:30;20.88;;;10.75;;
33150;SDS011;19508;42.578;23.416;2024-02-26T01:05:56;21.52;;;10.07;;
33150;SDS011;19508;42.578;23.416;2024-02-26T01:08:21;25.15;;;12.45;;
33150;SDS011;19508;42.578;23.416;2024-02-26T01:10:46;22.15;;;10.05;;
33150;SDS011;19508;42.578;23.416;2024-02-26T01:13:12;18.98;;;9.38;;
33150;SDS011;19508;42.578;23.416;2024-02-26T01:15:37;23.00;;;10.02;;
33150;SDS011;19508;42.578;23.416;2024-02-26T01:18:03;20.83;;;9.23;;
33150;SDS011;19508;42.578;23.416;2024-02-26T01:20:28;17.73;;;9.18;;
33150;SDS011;19508;42.578;23.416;2024-02-26T01:22:54;47.40;;;16.55;;
33150;SDS011;19508;42.578;23.416;2024-02-26T01:25:19;26.13;;;12.18;;
33150;SDS011;19508;42.578;23.416;2024-02-26T01:27:44;25.95;;;12.90;;
33150;SDS011;19508;42.578;23.416;2024-02-26T01:30:10;29.52;;;12.50;;
33150;SDS011;19508;42.578;23.416;2024-02-26T01:32:36;39.63;;;16.27;;
33150;SDS011;19508;42.578;23.416;2024-02-26T01:35:02;43.53;;;18.48;;
33150;SDS011;19508;42.578;23.416;2024-02-26T01:37:32;47.80;;;17.35;;
33150;SDS011;19508;42.578;23.416;2024-02-26T01:39:58;36.03;;;16.70;;
33150;SDS011;19508;42.578;23.416;2024-02-26T01:42:23;41.22;;;17.40;;
33150;SDS011;19508;42.578;23.416;2024-02-26T01:44:48;65.68;;;24.35;;
33150;SDS011;19508;42.578;23.416;2024-02-26T01:47:14;54.08;;;22.23;;
33150;SDS011;19508;42.578;23.416;2024-02-26T01:49:39;59.65;;;22.23;;
33150;SDS011;19508;42.578;23.416;2024-02-26T01:52:06;66.90;;;25.10;;
33150;SDS011;19508;42.578;23.416;2024-02-26T01:54:36;35.38;;;16.42;;
33150;SDS011;19508;42.578;23.416;2024-02-26T01:57:03;25.33;;;11.98;;
33150;SDS011;19508;42.578;23.416;2024-02-26T01:59:30;21.13;;;10.93;;
33150;SDS011;19508;42.578;23.416;2024-02-26T02:01:57;32.67;;;14.55;;
33150;SDS011;19508;42.578;23.416;2024-02-26T02:04:24;35.15;;;15.07;;
33150;SDS011;19508;42.578;23.416;2024-02-26T02:06:50;28.67;;;13.77;;
33150;SDS011;19508;42.578;23.416;2024-02-26T02:09:17;26.30;;;12.55;;
33150;SDS011;19508;42.578;23.416;2024-02-26T02:11:43;21.55;;;12.38;;
33150;SDS011;19508;42.578;23.416;2024-02-26T02:14:09;32.05;;;15.05;;
33150;SDS011;19508;42.578;23.416;2024-02-26T02:16:35;44.63;;;18.55;;
33150;SDS011;19508;42.578;23.416;2024-02-26T02:19:00;36.17;;;15.65;;
33150;SDS011;19508;42.578;23.416;2024-02-26T02:21:26;39.88;;;17.48;;
33150;SDS011;19508;42.578;23.416;2024-02-26T02:23:51;37.33;;;17.40;;
33150;SDS011;19508;42.578;23.416;2024-02-26T02:26:16;30.90;;;15.10;;
33150;SDS011;19508;42.578;23.416;2024-02-26T02:28:43;30.40;;;12.98;;
33150;SDS011;19508;42.578;23.416;2024-02-26T02:31:10;22.40;;;11.73;;
33150;SDS011;19508;42.578;23.416;2024-02-26T02:33:36;28.58;;;13.35;;
33150;SDS011;19508;42.578;23.416;2024-02-26T02:36:02;23.65;;;12.88;;
33150;SDS011;19508;42.578;23.416;2024-02-26T02:38:28;37.45;;;16.33;;
33150;SDS011;19508;42.578;23.416;2024-02-26T02:40:55;62.90;;;26.73;;
33150;SDS011;19508;42.578;23.416;2024-02-26T02:43:21;33.85;;;15.55;;
33150;SDS011;19508;42.578;23.416;2024-02-26T02:45:46;86.40;;;35.22;;
33150;SDS011;19508;42.578;23.416;2024-02-26T02:48:11;46.50;;;20.85;;
33150;SDS011;19508;42.578;23.416;2024-02-26T02:50:37;53.90;;;22.75;;
33150;SDS011;19508;42.578;23.416;2024-02-26T02:53:03;49.00;;;18.88;;
33150;SDS011;19508;42.578;23.416;2024-02-26T02:55:28;29.73;;;15.27;;
33150;SDS011;19508;42.578;23.416;2024-02-26T02:57:54;28.90;;;14.35;;
33150;SDS011;19508;42.578;23.416;2024-02-26T03:00:19;27.77;;;13.35;;
33150;SDS011;19508;42.578;23.416;2024-02-26T03:02:45;29.55;;;13.68;;
33150;SDS011;19508;42.578;23.416;2024-02-26T03:05:11;58.13;;;24.65;;
33150;SDS011;19508;42.578;23.416;2024-02-26T03:07:36;30.15;;;14.27;;
33150;SDS011;19508;42.578;23.416;2024-02-26T03:10:02;29.42;;;11.50;;
33150;SDS011;19508;42.578;23.416;2024-02-26T03:12:27;23.63;;;12.27;;
33150;SDS011;19508;42.578;23.416;2024-02-26T03:14:54;25.58;;;13.40;;
33150;SDS011;19508;42.578;23.416;2024-02-26T03:17:20;32.47;;;11.38;;
33150;SDS011;19508;42.578;23.416;2024-02-26T03:19:46;20.58;;;10.88;;
33150;SDS011;19508;42.578;23.416;2024-02-26T03:22:12;24.48;;;10.82;;
33150;SDS011;19508;42.578;23.416;2024-02-26T03:24:38;23.00;;;11.55;;
33150;SDS011;19508;42.578;23.416;2024-02-26T03:27:03;20.50;;;10.60;;
33150;SDS011;19508;42.578;23.416;2024-02-26T03:29:34;18.63;;;10.50;;
33150;SDS011;19508;42.578;23.416;2024-02-26T03:32:00;23.67;;;12.13;;
33150;SDS011;19508;42.578;23.416;2024-02-26T03:34:25;27.08;;;11.60;;
33150;SDS011;19508;42.578;23.416;2024-02-26T03:36:51;22.88;;;12.13;;
33150;SDS011;19508;42.578;23.416;2024-02-26T03:39:17;18.92;;;10.63;;
33150;SDS011;19508;42.578;23.416;2024-02-26T03:41:42;22.95;;;11.93;;
33150;SDS011;19508;42.578;23.416;2024-02-26T03:44:07;22.42;;;11.90;;
33150;SDS011;19508;42.578;23.416;2024-02-26T03:46:33;27.88;;;12.18;;
33150;SDS011;19508;42.578;23.416;2024-02-26T03:48:58;23.38;;;11.73;;
33150;SDS011;19508;42.578;23.416;2024-02-26T03:51:24;22.08;;;11.35;;
33150;SDS011;19508;42.578;23.416;2024-02-26T03:53:49;20.73;;;11.05;;
33150;SDS011;19508;42.578;23.416;2024-02-26T03:56:14;24.60;;;12.85;;
33150;SDS011;19508;42.578;23.416;2024-02-26T03:58:40;30.50;;;14.95;;
33150;SDS011;19508;42.578;23.416;2024-02-26T04:01:09;25.70;;;14.63;;
33150;SDS011;19508;42.578;23.416;2024-02-26T04:03:34;28.35;;;13.00;;
33150;SDS011;19508;42.578;23.416;2024-02-26T04:06:00;18.23;;;11.70;;
33150;SDS011;19508;42.578;23.416;2024-02-26T04:08:26;20.10;;;10.98;;
33150;SDS011;19508;42.578;23.416;2024-02-26T04:10:52;18.75;;;10.77;;
33150;SDS011;19508;42.578;23.416;2024-02-26T04:13:17;23.77;;;11.40;;
33150;SDS011;19508;42.578;23.416;2024-02-26T04:15:43;20.77;;;12.00;;
33150;SDS011;19508;42.578;23.416;2024-02-26T04:18:09;22.60;;;11.27;;
33150;SDS011;19508;42.578;23.416;2024-02-26T04:20:34;24.60;;;10.65;;
33150;SDS011;19508;42.578;23.416;2024-02-26T04:22:59;22.30;;;10.63;;
33150;SDS011;19508;42.578;23.416;2024-02-26T04:25:25;23.67;;;11.15;;
33150;SDS011;19508;42.578;23.416;2024-02-26T04:27:50;26.80;;;10.77;;
33150;SDS011;19508;42.578;23.416;2024-02-26T04:30:16;20.00;;;10.05;;
33150;SDS011;19508;42.578;23.416;2024-02-26T04:32:43;19.45;;;10.50;;
33150;SDS011;19508;42.578;23.416;2024-02-26T04:35:08;20.60;;;10.05;;
33150;SDS011;19508;42.578;23.416;2024-02-26T04:37:34;19.70;;;10.52;;
33150;SDS011;19508;42.578;23.416;2024-02-26T04:39:59;16.80;;;8.85;;
33150;SDS011;19508;42.578;23.416;2024-02-26T04:42:26;26.30;;;10.18;;
33150;SDS011;19508;42.578;23.416;2024-02-26T04:44:52;28.08;;;9.20;;
33150;SDS011;19508;42.578;23.416;2024-02-26T04:47:17;17.40;;;9.00;;
33150;SDS011;19508;42.578;23.416;2024-02-26T04:49:43;17.08;;;8.75;;
33150;SDS011;19508;42.578;23.416;2024-02-26T04:52:08;23.83;;;9.38;;
33150;SDS011;19508;42.578;23.416;2024-02-26T04:54:34;28.08;;;9.27;;
33150;SDS011;19508;42.578;23.416;2024-02-26T04:56:59;22.60;;;10.45;;
33150;SDS011;19508;42.578;23.416;2024-02-26T04:59:24;22.13;;;11.27;;
33150;SDS011;19508;42.578;23.416;2024-02-26T05:01:50;19.90;;;8.80;;
33150;SDS011;19508;42.578;23.416;2024-02-26T05:04:17;16.80;;;8.13;;
33150;SDS011;19508;42.578;23.416;2024-02-26T05:06:43;27.58;;;10.18;;
33150;SDS011;19508;42.578;23.416;2024-02-26T05:09:08;20.83;;;9.50;;
33150;SDS011;19508;42.578;23.416;2024-02-26T05:11:34;21.20;;;9.82;;
33150;SDS011;19508;42.578;23.416;2024-02-26T05:14:00;23.92;;;11.65;;
33150;SDS011;19508;42.578;23.416;2024-02-26T05:16:26;20.73;;;11.18;;
33150;SDS011;19508;42.578;23.416;2024-02-26T05:18:52;22.42;;;10.25;;
33150;SDS011;19508;42.578;23.416;2024-02-26T05:21:18;18.13;;;10.20;;
33150;SDS011;19508;42.578;23.416;2024-02-26T05:23:43;16.50;;;9.80;;
33150;SDS011;19508;42.578;23.416;2024-02-26T05:26:09;22.70;;;11.15;;
33150;SDS011;19508;42.578;23.416;2024-02-26T05:28:34;17.08;;;9.20;;
33150;SDS011;19508;42.578;23.416;2024-02-26T05:31:00;16.75;;;8.13;;
33150;SDS011;19508;42.578;23.416;2024-02-26T05:33:26;17.60;;;9.90;;
33150;SDS011;19508;42.578;23.416;2024-02-26T05:35:51;18.50;;;9.77;;
33150;SDS011;19508;42.578;23.416;2024-02-26T05:38:17;18.33;;;9.60;;
33150;SDS011;19508;42.578;23.416;2024-02-26T05:40:42;21.70;;;10.00;;
33150;SDS011;19508;42.578;23.416;2024-02-26T05:43:08;22.20;;;9.85;;
33150;SDS011;19508;42.578;23.416;2024-02-26T05:45:33;14.57;;;9.00;;
33150;SDS011;19508;42.578;23.416;2024-02-26T05:47:59;20.33;;;9.40;;
33150;SDS011;19508;42.578;23.416;2024-02-26T05:50:24;19.48;;;10.27;;
33150;SDS011;19508;42.578;23.416;2024-02-26T05:52:50;22.77;;;10.98;;
33150;SDS011;19508;42.578;23.416;2024-02-26T05:55:15;21.25;;;10.15;;
33150;SDS011;19508;42.578;23.416;2024-02-26T05:57:41;19.30;;;10.23;;
33150;SDS011;19508;42.578;23.416;2024-02-26T06:00:06;20.42;;;10.10;;
33150;SDS011;19508;42.578;23.416;2024-02-26T06:02:32;29.75;;;11.27;;
33150;SDS011;19508;42.578;23.416;2024-02-26T06:04:58;20.65;;;10.27;;
33150;SDS011;19508;42.578;23.416;2024-02-26T06:07:24;35.45;;;14.70;;
33150;SDS011;19508;42.578;23.416;2024-02-26T06:09:49;22.33;;;11.32;;
33150;SDS011;19508;42.578;23.416;2024-02-26T06:12:15;16.83;;;9.95;;
33150;SDS011;19508;42.578;23.416;2024-02-26T06:14:41;22.98;;;10.70;;
33150;SDS011;19508;42.578;23.416;2024-02-26T06:17:08;23.63;;;10.57;;
33150;SDS011;19508;42.578;23.416;2024-02-26T06:19:34;28.80;;;9.82;;
33150;SDS011;19508;42.578;23.416;2024-02-26T06:21:59;18.83;;;9.40;;
33150;SDS011;19508;42.578;23.416;2024-02-26T06:24:24;20.02;;;9.23;;
33150;SDS011;19508;42.578;23.416;2024-02-26T06:26:50;25.88;;;8.65;;
33150;SDS011;19508;42.578;23.416;2024-02-26T06:29:15;19.98;;;8.30;;
33150;SDS011;19508;42.578;23.416;2024-02-26T06:31:41;19.45;;;9.30;;
33150;SDS011;19508;42.578;23.416;2024-02-26T06:34:06;23.30;;;10.32;;
33150;SDS011;19508;42.578;23.416;2024-02-26T06:36:31;20.65;;;10.68;;
33150;SDS011;19508;42.578;23.416;2024-02-26T06:38:58;20.70;;;9.23;;
33150;SDS011;19508;42.578;23.416;2024-02-26T06:41:23;26.38;;;9.10;;
33150;SDS011;19508;42.578;23.416;2024-02-26T06:43:56;14.60;;;8.38;;
33150;SDS011;19508;42.578;23.416;2024-02-26T06:46:22;17.08;;;8.48;;
33150;SDS011;19508;42.578;23.416;2024-02-26T06:48:51;19.38;;;8.45;;
33150;SDS011;19508;42.578;23.416;2024-02-26T06:51:16;16.73;;;9.43;;
33150;SDS011;19508;42.578;23.416;2024-02-26T06:53:42;17.85;;;9.30;;
33150;SDS011;19508;42.578;23.416;2024-02-26T06:56:07;17.30;;;9.27;;
33150;SDS011;19508;42.578;23.416;2024-02-26T06:58:32;17.40;;;8.90;;
33150;SDS011;19508;42.578;23.416;2024-02-26T07:00:58;20.42;;;9.88;;
33150;SDS011;19508;42.578;23.416;2024-02-26T07:03:23;19.23;;;9.43;;
33150;SDS011;19508;42.578;23.416;2024-02-26T07:05:50;18.70;;;9.43;;
33150;SDS011;19508;42.578;23.416;2024-02-26T07:08:16;17.02;;;9.20;;
33150;SDS011;19508;42.578;23.416;2024-02-26T07:10:42;16.23;;;8.65;;
33150;SDS011;19508;42.578;23.416;2024-02-26T07:13:08;15.77;;;9.00;;
33150;SDS011;19508;42.578;23.416;2024-02-26T07:15:34;18.73;;;7.63;;
33150;SDS011;19508;42.578;23.416;2024-02-26T07:17:59;14.98;;;7.30;;
33150;SDS011;19508;42.578;23.416;2024-02-26T07:20:28;17.50;;;7.43;;
33150;SDS011;19508;42.578;23.416;2024-02-26T07:22:54;19.88;;;7.97;;
33150;SDS011;19508;42.578;23.416;2024-02-26T07:25:20;13.00;;;7.45;;
33150;SDS011;19508;42.578;23.416;2024-02-26T07:27:46;18.67;;;8.82;;
33150;SDS011;19508;42.578;23.416;2024-02-26T07:30:11;15.25;;;7.55;;
33150;SDS011;19508;42.578;23.416;2024-02-26T07:32:37;13.38;;;7.85;;
33150;SDS011;19508;42.578;23.416;2024-02-26T07:35:03;23.58;;;8.70;;
33150;SDS011;19508;42.578;23.416;2024-02-26T07:37:30;17.02;;;7.90;;
33150;SDS011;19508;42.578;23.416;2024-02-26T07:39:55;10.35;;;6.55;;
33150;SDS011;19508;42.578;23.416;2024-02-26T07:42:21;9.55;;;6.35;;
33150;SDS011;19508;42.578;23.416;2024-02-26T07:44:46;10.88;;;6.85;;
33150;SDS011;19508;42.578;23.416;2024-02-26T07:47:12;12.50;;;6.47;;
33150;SDS011;19508;42.578;23.416;2024-02-26T07:49:37;14.00;;;5.93;;
33150;SDS011;19508;42.578;23.416;2024-02-26T07:52:04;11.65;;;6.20;;
33150;SDS011;19508;42.578;23.416;2024-02-26T07:54:30;10.68;;;6.82;;
33150;SDS011;19508;42.578;23.416;2024-02-26T07:56:55;13.65;;;6.95;;
33150;SDS011;19508;42.578;23.416;2024-02-26T07:59:20;15.45;;;6.75;;
33150;SDS011;19508;42.578;23.416;2024-02-26T08:01:50;15.55;;;8.45;;
33150;SDS011;19508;42.578;23.416;2024-02-26T08:04:16;17.40;;;7.07;;
33150;SDS011;19508;42.578;23.416;2024-02-26T08:06:41;13.85;;;7.45;;
33150;SDS011;19508;42.578;23.416;2024-02-26T08:09:08;15.63;;;6.15;;
33150;SDS011;19508;42.578;23.416;2024-02-26T08:11:33;17.20;;;8.63;;
33150;SDS011;19508;42.578;23.416;2024-02-26T08:13:59;11.15;;;6.80;;
33150;SDS011;19508;42.578;23.416;2024-02-26T08:16:24;11.75;;;6.97;;
33150;SDS011;19508;42.578;23.416;2024-02-26T08:18:50;14.98;;;6.75;;
33150;SDS011;19508;42.578;23.416;2024-02-26T08:21:15;15.25;;;7.15;;
33150;SDS011;19508;42.578;23.416;2024-02-26T08:23:42;20.67;;;7.95;;
33150;SDS011;19508;42.578;23.416;2024-02-26T08:26:08;14.63;;;6.57;;
33150;SDS011;19508;42.578;23.416;2024-02-26T08:28:36;10.75;;;5.75;;
33150;SDS011;19508;42.578;23.416;2024-02-26T08:31:02;16.23;;;6.85;;
33150;SDS011;19508;42.578;23.416;2024-02-26T08:33:28;12.57;;;6.07;;
33150;SDS011;19508;42.578;23.416;2024-02-26T08:35:53;12.85;;;5.85;;
33150;SDS011;19508;42.578;23.416;2024-02-26T08:38:19;12.15;;;6.20;;
33150;SDS011;19508;42.578;23.416;2024-02-26T08:40:44;14.82;;;5.95;;
33150;SDS011;19508;42.578;23.416;2024-02-26T08:43:10;13.77;;;6.13;;
33150;SDS011;19508;42.578;23.416;2024-02-26T08:45:35;10.63;;;5.88;;
33150;SDS011;19508;42.578;23.416;2024-02-26T08:48:00;10.80;;;5.95;;
33150;SDS011;19508;42.578;23.416;2024-02-26T08:50:26;11.57;;;6.10;;
33150;SDS011;19508;42.578;23.416;2024-02-26T08:52:51;12.50;;;6.18;;
33150;SDS011;19508;42.578;23.416;2024-02-26T08:55:18;15.93;;;6.03;;
33150;SDS011;19508;42.578;23.416;2024-02-26T08:57:43;11.15;;;6.40;;
33150;SDS011;19508;42.578;23.416;2024-02-26T09:00:09;16.50;;;8.88;;
33150;SDS011;19508;42.578;23.416;2024-02-26T09:02:35;15.02;;;8.45;;
33150;SDS011;19508;42.578;23.416;2024-02-26T09:05:00;12.00;;;5.90;;
33150;SDS011;19508;42.578;23.416;2024-02-26T09:07:25;15.73;;;7.45;;
33150;SDS011;19508;42.578;23.416;2024-02-26T09:09:51;15.13;;;6.80;;
33150;SDS011;19508;42.578;23.416;2024-02-26T09:12:16;34.00;;;12.90;;
33150;SDS011;19508;42.578;23.416;2024-02-26T09:14:42;15.32;;;6.32;;
33150;SDS011;19508;42.578;23.416;2024-02-26T09:17:07;29.52;;;9.38;;
33150;SDS011;19508;42.578;23.416;2024-02-26T09:19:32;12.35;;;6.05;;
33150;SDS011;19508;42.578;23.416;2024-02-26T09:21:58;11.15;;;6.05;;
33150;SDS011;19508;42.578;23.416;2024-02-26T09:24:24;12.48;;;5.38;;
33150;SDS011;19508;42.578;23.416;2024-02-26T09:26:50;31.10;;;14.73;;
33150;SDS011;19508;42.578;23.416;2024-02-26T09:29:15;46.28;;;22.15;;
33150;SDS011;19508;42.578;23.416;2024-02-26T09:31:41;19.10;;;9.88;;
33150;SDS011;19508;42.578;23.416;2024-02-26T09:34:06;19.98;;;10.82;;
33150;SDS011;19508;42.578;23.416;2024-02-26T09:36:33;15.18;;;10.15;;
33150;SDS011;19508;42.578;23.416;2024-02-26T09:38:59;11.20;;;6.75;;
33150;SDS011;19508;42.578;23.416;2024-02-26T09:41:24;10.80;;;5.50;;
33150;SDS011;19508;42.578;23.416;2024-02-26T09:43:58;13.37;;;6.03;;
33150;SDS011;19508;42.578;23.416;2024-02-26T09:46:27;15.15;;;6.20;;
33150;SDS011;19508;42.578;23.416;2024-02-26T09:48:53;7.15;;;5.35;;
33150;SDS011;19508;42.578;23.416;2024-02-26T09:51:18;11.88;;;6.80;;
33150;SDS011;19508;42.578;23.416;2024-02-26T09:53:48;17.25;;;6.95;;
33150;SDS011;19508;42.578;23.416;2024-02-26T09:56:16;11.27;;;6.07;;
33150;SDS011;19508;42.578;23.416;2024-02-26T09:58:42;11.40;;;5.75;;
33150;SDS011;19508;42.578;23.416;2024-02-26T10:01:11;9.82;;;5.78;;
33150;SDS011;19508;42.578;23.416;2024-02-26T10:03:39;14.50;;;5.60;;
33150;SDS011;19508;42.578;23.416;2024-02-26T10:06:07;10.35;;;5.93;;
33150;SDS011;19508;42.578;23.416;2024-02-26T10:08:33;9.85;;;5.82;;
33150;SDS011;19508;42.578;23.416;2024-02-26T10:11:00;9.48;;;5.85;;
33150;SDS011;19508;42.578;23.416;2024-02-26T10:13:26;15.77;;;6.20;;
33150;SDS011;19508;42.578;23.416;2024-02-26T10:15:51;15.23;;;6.93;;
33150;SDS011;19508;42.578;23.416;2024-02-26T10:18:17;16.55;;;6.07;;
33150;SDS011;19508;42.578;23.416;2024-02-26T10:20:44;36.53;;;15.25;;
33150;SDS011;19508;42.578;23.416;2024-02-26T10:23:25;11.05;;;6.78;;
33150;SDS011;19508;42.578;23.416;2024-02-26T10:25:54;9.73;;;5.70;;
33150;SDS011;19508;42.578;23.416;2024-02-26T10:28:21;16.45;;;7.65;;
33150;SDS011;19508;42.578;23.416;2024-02-26T10:30:47;15.27;;;7.07;;
33150;SDS011;19508;42.578;23.416;2024-02-26T10:33:13;13.27;;;6.53;;
33150;SDS011;19508;42.578;23.416;2024-02-26T10:35:39;34.33;;;12.13;;
33150;SDS011;19508;42.578;23.416;2024-02-26T10:38:10;47.22;;;15.63;;
33150;SDS011;19508;42.578;23.416;2024-02-26T10:40:35;13.20;;;5.20;;
33150;SDS011;19508;42.578;23.416;2024-02-26T10:43:00;24.25;;;8.10;;
33150;SDS011;19508;42.578;23.416;2024-02-26T10:45:27;39.65;;;14.88;;
33150;SDS011;19508;42.578;23.416;2024-02-26T10:47:52;61.95;;;18.10;;
33150;SDS011;19508;42.578;23.416;2024-02-26T10:50:19;19.58;;;8.00;;
33150;SDS011;19508;42.578;23.416;2024-02-26T10:52:44;22.35;;;9.43;;
33150;SDS011;19508;42.578;23.416;2024-02-26T10:55:16;21.40;;;9.43;;
33150;SDS011;19508;42.578;23.416;2024-02-26T10:57:45;28.80;;;9.57;;
33150;SDS011;19508;42.578;23.416;2024-02-26T11:00:13;22.95;;;8.80;;
33150;SDS011;19508;42.578;23.416;2024-02-26T11:02:40;31.90;;;9.77;;
33150;SDS011;19508;42.578;23.416;2024-02-26T11:05:06;24.27;;;9.82;;
33150;SDS011;19508;42.578;23.416;2024-02-26T11:07:34;22.83;;;11.90;;
33150;SDS011;19508;42.578;23.416;2024-02-26T11:10:00;23.35;;;8.40;;
33150;SDS011;19508;42.578;23.416;2024-02-26T11:12:27;19.83;;;9.18;;
33150;SDS011;19508;42.578;23.416;2024-02-26T11:14:54;34.25;;;16.50;;
33150;SDS011;19508;42.578;23.416;2024-02-26T11:17:21;20.50;;;9.73;;
33150;SDS011;19508;42.578;23.416;2024-02-26T11:19:50;12.45;;;6.60;;
33150;SDS011;19508;42.578;23.416;2024-02-26T11:22:18;13.80;;;9.02;;
33150;SDS011;19508;42.578;23.416;2024-02-26T11:24:46;11.05;;;6.72;;
33150;SDS011;19508;42.578;23.416;2024-02-26T11:27:13;11.75;;;6.30;;
33150;SDS011;19508;42.578;23.416;2024-02-26T11:29:43;12.98;;;6.68;;
33150;SDS011;19508;42.578;23.416;2024-02-26T11:32:12;9.57;;;5.57;;
33150;SDS011;19508;42.578;23.416;2024-02-26T11:34:39;7.35;;;4.47;;
33150;SDS011;19508;42.578;23.416;2024-02-26T11:37:13;14.15;;;4.80;;
33150;SDS011;19508;42.578;23.416;2024-02-26T11:39:42;10.88;;;4.47;;
33150;SDS011;19508;42.578;23.416;2024-02-26T11:42:10;11.45;;;5.85;;
33150;SDS011;19508;42.578;23.416;2024-02-26T11:44:41;7.93;;;4.75;;
33150;SDS011;19508;42.578;23.416;2024-02-26T11:49:35;16.38;;;5.45;;
33150;SDS011;19508;42.578;23.416;2024-02-26T11:52:02;8.63;;;4.38;;
33150;SDS011;19508;42.578;23.416;2024-02-26T11:54:44;8.75;;;4.10;;
33150;SDS011;19508;42.578;23.416;2024-02-26T11:57:29;5.70;;;4.05;;
33150;SDS011;19508;42.578;23.416;2024-02-26T12:00:11;14.30;;;7.28;;
33150;SDS011;19508;42.578;23.416;2024-02-26T12:05:11;26.58;;;11.05;;
33150;SDS011;19508;42.578;23.416;2024-02-26T12:07:42;11.60;;;5.80;;
33150;SDS011;19508;42.578;23.416;2024-02-26T12:12:52;16.90;;;7.45;;
33150;SDS011;19508;42.578;23.416;2024-02-26T12:15:19;18.05;;;5.75;;
33150;SDS011;19508;42.578;23.416;2024-02-26T12:17:48;25.73;;;10.15;;
33150;SDS011;19508;42.578;23.416;2024-02-26T12:20:15;12.48;;;5.43;;
33150;SDS011;19508;42.578;23.416;2024-02-26T12:22:42;17.05;;;6.85;;
33150;SDS011;19508;42.578;23.416;2024-02-26T12:25:12;12.02;;;5.07;;
33150;SDS011;19508;42.578;23.416;2024-02-26T12:27:38;9.48;;;4.53;;
33150;SDS011;19508;42.578;23.416;2024-02-26T12:30:05;11.07;;;4.50;;
33150;SDS011;19508;42.578;23.416;2024-02-26T12:32:31;6.55;;;4.03;;
33150;SDS011;19508;42.578;23.416;2024-02-26T12:34:57;10.80;;;4.38;;
33150;SDS011;19508;42.578;23.416;2024-02-26T12:37:25;10.05;;;4.82;;
33150;SDS011;19508;42.578;23.416;2024-02-26T12:39:51;6.13;;;3.40;;
33150;SDS011;19508;42.578;23.416;2024-02-26T12:42:16;8.20;;;3.78;;
33150;SDS011;19508;42.578;23.416;2024-02-26T12:44:44;6.13;;;3.67;;
33150;SDS011;19508;42.578;23.416;2024-02-26T12:47:10;14.15;;;3.42;;
33150;SDS011;19508;42.578;23.416;2024-02-26T12:49:42;11.73;;;4.57;;
33150;SDS011;19508;42.578;23.416;2024-02-26T12:52:08;11.45;;;4.22;;
33150;SDS011;19508;42.578;23.416;2024-02-26T12:54:35;13.45;;;4.10;;
33150;SDS011;19508;42.578;23.416;2024-02-26T12:57:04;7.95;;;3.67;;
33150;SDS011;19508;42.578;23.416;2024-02-26T12:59:33;14.27;;;4.68;;
33150;SDS011;19508;42.578;23.416;2024-02-26T13:02:01;11.73;;;3.53;;
33150;SDS011;19508;42.578;23.416;2024-02-26T13:04:28;8.02;;;4.45;;
33150;SDS011;19508;42.578;23.416;2024-02-26T13:06:55;13.20;;;6.95;;
33150;SDS011;19508;42.578;23.416;2024-02-26T13:09:20;6.60;;;3.20;;
33150;SDS011;19508;42.578;23.416;2024-02-26T13:11:53;8.70;;;4.55;;
33150;SDS011;19508;42.578;23.416;2024-02-26T13:14:19;10.50;;;5.85;;
33150;SDS011;19508;42.578;23.416;2024-02-26T13:16:45;26.38;;;8.90;;
33150;SDS011;19508;42.578;23.416;2024-02-26T13:19:23;10.07;;;4.28;;
33150;SDS011;19508;42.578;23.416;2024-02-26T13:21:49;14.32;;;5.60;;
33150;SDS011;19508;42.578;23.416;2024-02-26T13:24:14;11.38;;;4.93;;
33150;SDS011;19508;42.578;23.416;2024-02-26T13:26:40;8.43;;;3.40;;
33150;SDS011;19508;42.578;23.416;2024-02-26T13:29:06;11.63;;;4.28;;
33150;SDS011;19508;42.578;23.416;2024-02-26T13:31:42;9.25;;;4.35;;
33150;SDS011;19508;42.578;23.416;2024-02-26T13:34:07;8.18;;;3.83;;
33150;SDS011;19508;42.578;23.416;2024-02-26T13:36:33;5.97;;;3.00;;
33150;SDS011;19508;42.578;23.416;2024-02-26T13:38:58;9.88;;;4.15;;
33150;SDS011;19508;42.578;23.416;2024-02-26T13:41:25;9.70;;;3.90;;
33150;SDS011;19508;42.578;23.416;2024-02-26T13:43:51;9.48;;;4.07;;
33150;SDS011;19508;42.578;23.416;2024-02-26T13:46:16;17.55;;;6.22;;
33150;SDS011;19508;42.578;23.416;2024-02-26T13:48:42;16.40;;;7.30;;
33150;SDS011;19508;42.578;23.416;2024-02-26T13:51:08;12.18;;;5.15;;
33150;SDS011;19508;42.578;23.416;2024-02-26T13:53:34;13.27;;;4.22;;
33150;SDS011;19508;42.578;23.416;2024-02-26T13:55:59;7.63;;;3.67;;
33150;SDS011;19508;42.578;23.416;2024-02-26T13:58:26;7.32;;;3.83;;
33150;SDS011;19508;42.578;23.416;2024-02-26T14:00:52;8.13;;;4.68;;
33150;SDS011;19508;42.578;23.416;2024-02-26T14:03:21;8.82;;;3.42;;
33150;SDS011;19508;42.578;23.416;2024-02-26T14:05:46;11.20;;;4.43;;
33150;SDS011;19508;42.578;23.416;2024-02-26T14:08:12;8.50;;;3.60;;
33150;SDS011;19508;42.578;23.416;2024-02-26T14:10:37;6.30;;;3.30;;
33150;SDS011;19508;42.578;23.416;2024-02-26T14:13:03;18.25;;;4.40;;
33150;SDS011;19508;42.578;23.416;2024-02-26T14:15:29;7.25;;;3.63;;
33150;SDS011;19508;42.578;23.416;2024-02-26T14:17:54;15.65;;;5.45;;
33150;SDS011;19508;42.578;23.416;2024-02-26T14:20:23;12.95;;;5.00;;
33150;SDS011;19508;42.578;23.416;2024-02-26T14:22:50;7.38;;;3.33;;
33150;SDS011;19508;42.578;23.416;2024-02-26T14:25:18;13.30;;;4.32;;